LFRD/DNR METAR and TAF weather

Enter ICAO airport designator
Station Type Date Time Source
LFRD METAR 2021/09/28 17:00 UTC NOAA

LFRD 281700Z AUTO 20013KT CAVOK 16/12 Q1016 NOSIG


Station Type Date Time Source
LFRD Decoded METAR 2021/09/28 17:00 UTC NOAA

Dinard, France (LFRD) 48-35N 002-04W 60M
Sep 28, 2021 - 01:00 PM EDT / 2021.09.28 1700 UTC
Wind: from the SSW (200 degrees) at 15 MPH (13 KT):0
Visibility: greater than 7 mile(s):0
Temperature: 60 F (16 C)
Dew Point: 53 F (12 C)
Relative Humidity: 77%
Pressure (altimeter): 30.00 in. Hg (1016 hPa)
ob: LFRD 281700Z AUTO 20013KT CAVOK 16/12 Q1016 NOSIG
cycle: 17

Station Type Date Time Source
LFRD TAF 2021/09/28 12:21 UTC NOAA

TAF LFRD 281100Z 2812/2912 19010KT 9999 SCT040
TEMPO 2812/2816 21015G25KT 4000 SHRA BKN020CB
TEMPO 2819/2822 22015G35KT 2000 SHRA BKN008 BKN015CB PROB30 2819/2822 TSRA
BECMG 2822/2824 28012KT PROB30
TEMPO 2822/2908 28015G25KT 4000 SHRA BKN020TCU PROB30
TEMPO 2908/2911 28015G25KT 5000 SHRA

Example: see airport list